createdAt,value
2019-01-21T00:00:33.005Z,-2.86
2019-01-21T00:03:01.647Z,-2.91
2019-01-21T00:05:30.105Z,-2.79
2019-01-21T00:07:58.553Z,-2.67
2019-01-21T00:10:27.072Z,-2.57
2019-01-21T00:12:55.771Z,-2.55
2019-01-21T00:15:24.373Z,-2.61
2019-01-21T00:17:52.812Z,-2.60
2019-01-21T00:20:21.342Z,-2.57
2019-01-21T00:22:49.768Z,-2.53
2019-01-21T00:25:18.293Z,-2.51
2019-01-21T00:27:46.796Z,-2.49
2019-01-21T00:30:15.370Z,-2.46
2019-01-21T00:32:43.877Z,-2.53
2019-01-21T00:35:12.511Z,-2.54
2019-01-21T00:37:40.942Z,-2.50
2019-01-21T00:40:13.773Z,-2.54
2019-01-21T00:42:42.351Z,-2.67
2019-01-21T00:45:11.264Z,-2.67
2019-01-21T00:47:39.762Z,-2.68
2019-01-21T00:50:10.747Z,-2.61
2019-01-21T00:52:39.185Z,-2.58
2019-01-21T00:55:10.090Z,-2.61
2019-01-21T00:57:38.690Z,-2.58
2019-01-21T01:00:16.275Z,-2.55
2019-01-21T01:02:45.312Z,-2.53
2019-01-21T01:05:14.722Z,-2.52
2019-01-21T01:07:43.300Z,-2.53
2019-01-21T01:10:13.122Z,-2.56
2019-01-21T01:12:41.765Z,-2.66
2019-01-21T01:15:12.645Z,-3.04
2019-01-21T01:17:41.362Z,-3.47
2019-01-21T01:20:15.658Z,-3.54
2019-01-21T01:22:44.165Z,-3.41
2019-01-21T01:25:13.005Z,-3.24
2019-01-21T01:27:41.781Z,-3.07
2019-01-21T01:30:13.096Z,-2.97
2019-01-21T01:32:41.543Z,-2.91
2019-01-21T01:35:11.339Z,-3.04
2019-01-21T01:37:39.858Z,-3.30
2019-01-21T01:40:11.939Z,-3.18
2019-01-21T01:42:40.380Z,-3.11
2019-01-21T01:45:12.077Z,-3.07
2019-01-21T01:47:44.730Z,-3.18
2019-01-21T01:50:11.134Z,-3.11
2019-01-21T01:52:39.888Z,-3.12
2019-01-21T01:55:10.248Z,-3.06
2019-01-21T01:57:38.715Z,-3.01
2019-01-21T02:00:10.454Z,-3.06
2019-01-21T02:02:39.003Z,-3.03
2019-01-21T02:05:07.875Z,-2.95
2019-01-21T02:07:36.334Z,-3.00
2019-01-21T02:10:07.962Z,-3.02
2019-01-21T02:12:36.487Z,-3.13
2019-01-21T02:15:08.580Z,-3.06
2019-01-21T02:17:37.358Z,-3.06
2019-01-21T02:20:12.119Z,-3.16
2019-01-21T02:22:42.994Z,-3.08
2019-01-21T02:25:12.153Z,-3.02
2019-01-21T02:28:01.771Z,-3.11
2019-01-21T02:30:33.352Z,-3.47
2019-01-21T02:33:07.435Z,-3.39
2019-01-21T02:35:38.940Z,-3.30
2019-01-21T02:38:16.384Z,-3.27
2019-01-21T02:40:57.065Z,-3.38
2019-01-21T02:43:59.536Z,-3.61
2019-01-21T02:47:07.117Z,-3.78
2019-01-21T02:49:55.314Z,-3.70
2019-01-21T02:52:36.075Z,-3.50
2019-01-21T02:55:22.652Z,-3.37
2019-01-21T02:58:12.096Z,-3.35
2019-01-21T03:01:04.752Z,-3.32
2019-01-21T03:03:36.244Z,-3.32
2019-01-21T03:06:16.478Z,-3.42
2019-01-21T03:08:59.812Z,-3.76
2019-01-21T03:11:43.423Z,-3.70
2019-01-21T03:14:35.559Z,-3.61
2019-01-21T03:17:09.626Z,-3.49
2019-01-21T03:19:53.051Z,-3.47
2019-01-21T03:22:27.564Z,-3.51
2019-01-21T03:25:05.060Z,-3.85
2019-01-21T03:27:45.976Z,-3.91
2019-01-21T03:30:38.746Z,-3.87
2019-01-21T03:33:31.582Z,-3.75
2019-01-21T03:36:09.019Z,-3.69
2019-01-21T03:38:48.692Z,-3.64
2019-01-21T03:41:34.746Z,-3.64
2019-01-21T03:44:14.876Z,-3.57
2019-01-21T03:46:54.996Z,-3.55
2019-01-21T03:49:35.653Z,-3.54
2019-01-21T03:52:23.827Z,-3.57
2019-01-21T03:54:52.930Z,-3.60
2019-01-21T03:57:24.410Z,-3.59
2019-01-21T04:00:14.289Z,-3.65
2019-01-21T04:02:51.579Z,-3.80
2019-01-21T04:05:23.091Z,-3.95
2019-01-21T04:07:57.083Z,-4.00
2019-01-21T04:11:00.563Z,-4.09
2019-01-21T04:13:54.341Z,-4.21
2019-01-21T04:16:40.620Z,-4.39
2019-01-21T04:19:30.449Z,-4.23
2019-01-21T04:22:22.879Z,-4.07
2019-01-21T04:24:54.381Z,-4.08
2019-01-21T04:27:28.543Z,-4.11
2019-01-21T04:30:22.905Z,-4.07
2019-01-21T04:33:10.740Z,-4.01
2019-01-21T04:35:47.785Z,-3.97
2019-01-21T04:38:25.150Z,-3.84
2019-01-21T04:41:14.900Z,-3.75
2019-01-21T04:44:07.325Z,-3.76
2019-01-21T04:46:54.041Z,-3.72
2019-01-21T04:49:34.892Z,-3.72
2019-01-21T04:52:22.939Z,-3.68
2019-01-21T04:55:17.594Z,-3.71
2019-01-21T04:57:57.927Z,-3.68
2019-01-21T05:00:49.256Z,-3.67
2019-01-21T05:03:26.453Z,-3.77
2019-01-21T05:06:14.615Z,-3.85
2019-01-21T05:09:10.317Z,-3.88
2019-01-21T05:12:13.694Z,-3.81
2019-01-21T05:15:17.025Z,-3.75
2019-01-21T05:17:54.542Z,-3.70
2019-01-21T05:20:43.941Z,-3.67
2019-01-21T05:23:15.828Z,-3.66
2019-01-21T05:26:05.202Z,-3.64
2019-01-21T05:28:39.270Z,-3.63
2019-01-21T05:31:11.070Z,-3.60
2019-01-21T05:33:42.580Z,-3.54
2019-01-21T05:36:29.224Z,-3.49
2019-01-21T05:39:00.747Z,-3.46
2019-01-21T05:41:48.667Z,-3.55
2019-01-21T05:44:22.959Z,-3.60
2019-01-21T05:47:06.432Z,-3.61
2019-01-21T05:50:10.024Z,-3.60
2019-01-21T05:53:02.575Z,-3.62
2019-01-21T05:55:50.417Z,-3.60
2019-01-21T05:58:47.469Z,-3.64
2019-01-21T06:01:39.922Z,-3.76
2019-01-21T06:04:17.241Z,-3.85
2019-01-21T06:06:54.542Z,-3.89
2019-01-21T06:09:28.874Z,-3.87
2019-01-21T06:12:06.336Z,-3.78
2019-01-21T06:15:01.734Z,-3.97
2019-01-21T06:17:52.629Z,-4.14
2019-01-21T06:20:49.676Z,-4.20
2019-01-21T06:23:21.179Z,-4.04
2019-01-21T06:26:01.848Z,-3.94
2019-01-21T06:28:57.009Z,-3.90
2019-01-21T06:31:46.504Z,-3.83
2019-01-21T06:34:41.970Z,-3.80
2019-01-21T06:37:16.174Z,-3.79
2019-01-21T06:39:47.686Z,-3.72
2019-01-21T06:42:30.991Z,-3.69
2019-01-21T06:45:05.446Z,-3.69
2019-01-21T06:47:49.168Z,-3.68
2019-01-21T06:50:26.584Z,-3.74
2019-01-21T06:53:06.990Z,-3.80
2019-01-21T06:56:11.744Z,-3.71
2019-01-21T06:59:04.519Z,-3.65
2019-01-21T07:01:44.756Z,-3.62
2019-01-21T07:04:37.163Z,-3.73
2019-01-21T07:07:34.176Z,-3.71
2019-01-21T07:10:17.499Z,-3.63
2019-01-21T07:12:57.963Z,-3.58
2019-01-21T07:15:41.290Z,-3.52
2019-01-21T07:18:26.106Z,-3.39
2019-01-21T07:20:57.859Z,-3.33
2019-01-21T07:23:44.387Z,-3.25
2019-01-21T07:26:15.886Z,-3.14
2019-01-21T07:28:50.184Z,-3.09
2019-01-21T07:31:30.832Z,-3.07
2019-01-21T07:34:04.872Z,-3.08
2019-01-21T07:36:36.407Z,-2.95
2019-01-21T07:39:10.858Z,-2.95
2019-01-21T07:41:51.364Z,-2.97
2019-01-21T07:44:28.884Z,-2.89
2019-01-21T07:47:06.567Z,-2.80
2019-01-21T07:49:44.098Z,-2.69
2019-01-21T07:52:18.210Z,-2.58
2019-01-21T07:54:55.461Z,-2.47
2019-01-21T07:57:38.989Z,-2.40
2019-01-21T08:00:16.116Z,-2.33
2019-01-21T08:03:08.708Z,-2.31
2019-01-21T08:05:40.224Z,-2.27
2019-01-21T08:08:32.595Z,-2.26
2019-01-21T08:11:24.961Z,-2.20
2019-01-21T08:14:05.506Z,-2.08
2019-01-21T08:16:55.021Z,-2.02
2019-01-21T08:19:41.388Z,-2.02
2019-01-21T08:22:13.019Z,-1.96
2019-01-21T08:25:08.861Z,-1.91
2019-01-21T08:27:40.370Z,-1.88
2019-01-21T08:30:11.876Z,-1.86
2019-01-21T08:33:16.387Z,-1.84
2019-01-21T08:35:50.613Z,-1.78
2019-01-21T08:38:30.191Z,-1.75
2019-01-21T08:41:04.402Z,-1.68
2019-01-21T08:43:41.643Z,-1.63
2019-01-21T08:46:37.031Z,-1.54
2019-01-21T08:49:30.756Z,-1.51
2019-01-21T08:52:23.744Z,-1.47
2019-01-21T08:54:58.116Z,-1.46
2019-01-21T08:57:49.067Z,-1.40
2019-01-21T09:00:32.584Z,-1.40
2019-01-21T09:03:23.504Z,-1.33
2019-01-21T09:05:57.881Z,-1.29
2019-01-21T09:08:37.882Z,-1.33
2019-01-21T09:11:12.651Z,-1.25
2019-01-21T09:14:00.866Z,-1.15
2019-01-21T09:17:02.772Z,-1.08
2019-01-21T09:19:50.452Z,-1.02
2019-01-21T09:22:27.751Z,-0.98
2019-01-21T09:25:07.996Z,-0.96
2019-01-21T09:27:51.609Z,-0.93
2019-01-21T09:30:51.853Z,-0.91
2019-01-21T09:33:26.461Z,-0.88
2019-01-21T09:36:09.945Z,-0.81
2019-01-21T09:38:50.126Z,-0.81
2019-01-21T09:41:24.507Z,-0.78
2019-01-21T09:44:02.206Z,-0.76
2019-01-21T09:46:46.949Z,-0.74
2019-01-21T09:49:14.294Z,-0.68
2019-01-21T09:51:44.765Z,-0.59
2019-01-21T09:54:13.390Z,-0.62
2019-01-21T09:56:42.365Z,-0.57
2019-01-21T09:59:11.259Z,-0.49
2019-01-21T10:01:40.247Z,-0.46
2019-01-21T10:04:09.032Z,-0.49
2019-01-21T10:06:40.537Z,-0.43
2019-01-21T10:09:15.009Z,-0.36
2019-01-21T10:11:46.608Z,-0.33
2019-01-21T10:14:20.952Z,-0.29
2019-01-21T10:17:13.113Z,-0.25
2019-01-21T10:20:00.894Z,-0.19
2019-01-21T10:22:35.315Z,-0.09
2019-01-21T10:25:18.950Z,-0.03
2019-01-21T10:28:10.262Z,-0.19
2019-01-21T10:31:35.529Z,-0.11
2019-01-21T10:34:39.972Z,-0.07
2019-01-21T10:37:23.284Z,0.03
2019-01-21T10:40:08.831Z,0.11
2019-01-21T10:43:04.198Z,0.16
2019-01-21T10:45:43.913Z,0.23
2019-01-21T10:48:21.278Z,0.23
2019-01-21T10:51:16.138Z,0.29
2019-01-21T10:54:02.497Z,0.35
2019-01-21T10:56:37.069Z,0.41
2019-01-21T10:59:23.135Z,0.45
2019-01-21T11:02:06.597Z,0.58
2019-01-21T11:04:38.104Z,0.66
2019-01-21T11:07:43.196Z,0.69
2019-01-21T11:10:29.756Z,0.75
2019-01-21T11:13:16.408Z,0.87
2019-01-21T11:15:50.786Z,0.97
2019-01-21T11:18:25.011Z,0.96
2019-01-21T11:21:17.671Z,1.01
2019-01-21T11:24:03.841Z,1.09
2019-01-21T11:26:57.864Z,1.11
2019-01-21T11:29:35.185Z,1.16
2019-01-21T11:32:26.193Z,1.21
2019-01-21T11:35:26.636Z,1.31
2019-01-21T11:38:17.170Z,1.39
2019-01-21T11:40:54.537Z,1.45
2019-01-21T11:43:34.949Z,1.53
2019-01-21T11:46:15.231Z,1.56
2019-01-21T11:48:58.451Z,1.53
2019-01-21T11:51:36.328Z,1.52
2019-01-21T11:54:25.983Z,1.60
2019-01-21T11:57:15.233Z,1.55
2019-01-21T11:59:52.644Z,1.62
2019-01-21T12:02:35.611Z,1.70
2019-01-21T12:05:08.523Z,1.85
2019-01-21T12:08:02.399Z,1.97
2019-01-21T12:10:55.157Z,2.07
2019-01-21T12:13:29.298Z,2.18
2019-01-21T12:16:15.753Z,2.24
2019-01-21T12:19:02.384Z,2.32
2019-01-21T12:21:39.537Z,2.38
2019-01-21T12:24:11.013Z,2.35
2019-01-21T12:26:48.360Z,2.39
2019-01-21T12:29:25.844Z,2.41
2019-01-21T12:32:23.024Z,2.48
2019-01-21T12:35:03.164Z,2.52
2019-01-21T12:37:46.875Z,2.67
2019-01-21T12:40:33.501Z,2.70
2019-01-21T12:43:07.791Z,2.70
2019-01-21T12:46:01.892Z,2.69
2019-01-21T12:48:33.407Z,2.79
2019-01-21T12:51:19.861Z,2.84
2019-01-21T12:54:06.373Z,2.81
2019-01-21T12:56:49.813Z,2.99
2019-01-21T12:59:30.357Z,3.19
2019-01-21T13:02:04.359Z,3.26
2019-01-21T13:04:35.891Z,3.38
2019-01-21T13:07:13.092Z,3.37
2019-01-21T13:10:05.822Z,3.43
2019-01-21T13:13:04.639Z,3.37
2019-01-21T13:15:45.017Z,3.51
2019-01-21T13:18:40.474Z,3.59
2019-01-21T13:21:36.264Z,3.57
2019-01-21T13:24:07.734Z,3.55
2019-01-21T13:27:00.519Z,3.60
2019-01-21T13:29:34.826Z,3.71
2019-01-21T13:32:18.076Z,3.76
2019-01-21T13:35:01.667Z,3.79
2019-01-21T13:37:45.068Z,3.56
2019-01-21T13:40:48.291Z,3.55
2019-01-21T13:43:36.268Z,3.41
2019-01-21T13:46:41.182Z,3.05
2019-01-21T13:49:27.773Z,2.85
2019-01-21T13:52:28.450Z,2.74
2019-01-21T13:55:27.214Z,2.67
2019-01-21T13:58:16.719Z,2.52
2019-01-21T14:01:21.107Z,2.38
2019-01-21T14:04:19.758Z,2.29
2019-01-21T14:06:57.220Z,2.23
2019-01-21T14:09:34.508Z,2.16
2019-01-21T14:12:25.428Z,2.12
2019-01-21T14:15:00.492Z,2.14
2019-01-21T14:17:44.285Z,2.08
2019-01-21T14:20:27.489Z,2.08
2019-01-21T14:23:01.566Z,2.04
2019-01-21T14:25:38.939Z,2.05
2019-01-21T14:28:16.164Z,2.09
2019-01-21T14:30:53.640Z,2.10
2019-01-21T14:33:43.046Z,2.15
2019-01-21T14:36:14.524Z,2.10
2019-01-21T14:38:46.053Z,2.12
2019-01-21T14:41:17.514Z,2.15
2019-01-21T14:44:14.604Z,2.15
2019-01-21T14:46:46.083Z,2.15
2019-01-21T14:49:26.585Z,2.12
2019-01-21T14:51:58.069Z,2.07
2019-01-21T14:54:38.670Z,2.05
2019-01-21T14:57:29.815Z,1.93
2019-01-21T15:00:13.125Z,1.92
2019-01-21T15:03:02.548Z,1.91
2019-01-21T15:05:48.987Z,1.88
2019-01-21T15:08:20.491Z,1.84
2019-01-21T15:11:07.422Z,1.84
2019-01-21T15:13:44.411Z,1.81
2019-01-21T15:16:19.202Z,1.81
2019-01-21T15:18:53.732Z,1.77
2019-01-21T15:21:47.579Z,1.75
2019-01-21T15:24:25.034Z,1.73
2019-01-21T15:27:05.203Z,1.73
2019-01-21T15:29:52.024Z,1.71
2019-01-21T15:32:38.742Z,1.66
2019-01-21T15:35:31.508Z,1.63
2019-01-21T15:38:12.110Z,1.60
2019-01-21T15:40:52.313Z,1.55
2019-01-21T15:43:35.637Z,1.44
2019-01-21T15:46:22.212Z,1.40
2019-01-21T15:48:53.697Z,1.34
2019-01-21T15:51:30.714Z,1.29
2019-01-21T15:54:22.759Z,1.27
2019-01-21T15:57:10.822Z,1.24
2019-01-21T15:59:54.988Z,1.24
2019-01-21T16:02:35.260Z,1.24
2019-01-21T16:05:18.561Z,1.26
2019-01-21T16:07:50.039Z,1.29
2019-01-21T16:10:33.627Z,1.24
2019-01-21T16:13:10.855Z,1.21
2019-01-21T16:15:48.082Z,1.20
2019-01-21T16:18:28.642Z,1.16
2019-01-21T16:21:31.971Z,1.13
2019-01-21T16:24:27.627Z,1.09
2019-01-21T16:27:01.913Z,1.07
2019-01-21T16:29:42.457Z,1.03
2019-01-21T16:32:10.915Z,1.01
2019-01-21T16:34:57.550Z,1.01
2019-01-21T16:37:35.888Z,0.98
2019-01-21T16:40:15.950Z,0.97
2019-01-21T16:42:44.428Z,0.96
2019-01-21T16:45:12.936Z,0.88
2019-01-21T16:47:41.458Z,0.86
2019-01-21T16:50:10.065Z,0.88
2019-01-21T16:52:38.521Z,0.86
2019-01-21T16:55:08.542Z,0.86
2019-01-21T16:57:36.967Z,0.85
2019-01-21T17:00:11.720Z,0.86
2019-01-21T17:02:40.160Z,0.86
2019-01-21T17:05:11.663Z,0.80
2019-01-21T17:07:40.111Z,0.77
2019-01-21T17:10:11.605Z,0.69
2019-01-21T17:12:40.104Z,0.69
2019-01-21T17:15:13.466Z,0.71
2019-01-21T17:17:41.966Z,0.70
2019-01-21T17:20:16.402Z,0.70
2019-01-21T17:22:44.843Z,0.71
2019-01-21T17:25:13.546Z,0.70
2019-01-21T17:27:42.042Z,0.74
2019-01-21T17:30:16.414Z,0.73
2019-01-21T17:32:45.034Z,0.68
2019-01-21T17:35:14.931Z,0.68
2019-01-21T17:37:43.555Z,0.68
2019-01-21T17:40:15.616Z,0.70
2019-01-21T17:42:44.038Z,0.69
2019-01-21T17:45:15.938Z,0.71
2019-01-21T17:47:44.660Z,0.72
2019-01-21T17:50:15.745Z,0.75
2019-01-21T17:52:44.257Z,0.77
2019-01-21T17:55:13.651Z,0.76
2019-01-21T17:57:42.087Z,0.77
2019-01-21T18:00:14.951Z,0.80
2019-01-21T18:02:43.419Z,0.85
2019-01-21T18:05:13.719Z,0.84
2019-01-21T18:07:42.151Z,0.84
2019-01-21T18:10:13.429Z,0.84
2019-01-21T18:12:41.880Z,0.88
2019-01-21T18:15:12.385Z,0.90
2019-01-21T18:17:40.887Z,0.93
2019-01-21T18:20:15.059Z,0.94
2019-01-21T18:22:43.593Z,0.95
2019-01-21T18:25:12.972Z,0.97
2019-01-21T18:27:41.515Z,1.01
2019-01-21T18:30:16.348Z,1.00
2019-01-21T18:32:44.812Z,1.02
2019-01-21T18:35:14.008Z,1.01
2019-01-21T18:37:42.703Z,0.99
2019-01-21T18:40:14.125Z,0.91
2019-01-21T18:42:42.791Z,0.95
2019-01-21T18:45:14.323Z,0.97
2019-01-21T18:47:42.921Z,0.93
2019-01-21T18:50:12.145Z,0.97
2019-01-21T18:52:40.644Z,1.02
2019-01-21T18:55:10.260Z,1.06
2019-01-21T18:57:38.792Z,1.10
2019-01-21T19:00:19.288Z,1.11
2019-01-21T19:02:48.052Z,1.12
2019-01-21T19:05:16.670Z,1.16
2019-01-21T19:07:45.178Z,1.18
2019-01-21T19:10:15.863Z,1.19
2019-01-21T19:12:45.254Z,1.19
2019-01-21T19:15:22.729Z,1.21
2019-01-21T19:17:51.321Z,1.22
2019-01-21T19:20:19.807Z,1.21
2019-01-21T19:22:48.352Z,1.21
2019-01-21T19:25:17.112Z,1.21
2019-01-21T19:27:45.787Z,1.21
2019-01-21T19:30:23.085Z,1.23
2019-01-21T19:32:51.589Z,1.24
2019-01-21T19:35:23.320Z,1.24
2019-01-21T19:37:51.754Z,1.28
2019-01-21T19:40:22.132Z,1.28
2019-01-21T19:42:50.623Z,1.26
2019-01-21T19:45:19.606Z,1.28
2019-01-21T19:47:48.141Z,1.24
2019-01-21T19:50:19.474Z,1.25
2019-01-21T19:52:48.241Z,1.26
2019-01-21T19:55:37.965Z,1.27
2019-01-21T19:58:07.430Z,1.26
2019-01-21T20:00:36.151Z,1.25
2019-01-21T20:03:04.838Z,1.23
2019-01-21T20:05:33.403Z,1.26
2019-01-21T20:08:01.930Z,1.29
2019-01-21T20:10:30.545Z,1.31
2019-01-21T20:12:59.055Z,1.31
2019-01-21T20:15:27.668Z,1.30
2019-01-21T20:17:56.153Z,1.36
2019-01-21T20:20:31.018Z,1.36
2019-01-21T20:22:59.569Z,1.40
2019-01-21T20:25:28.310Z,1.43
2019-01-21T20:27:56.735Z,1.41
2019-01-21T20:30:25.759Z,1.43
2019-01-21T20:32:54.270Z,1.44
2019-01-21T20:35:23.255Z,1.45
2019-01-21T20:37:51.795Z,1.44
2019-01-21T20:40:23.025Z,1.45
2019-01-21T20:42:51.624Z,1.45
2019-01-21T20:45:20.299Z,1.50
2019-01-21T20:47:48.761Z,1.52
2019-01-21T20:50:22.731Z,1.53
2019-01-21T20:52:51.177Z,1.51
2019-01-21T20:55:20.158Z,1.51
2019-01-21T20:57:48.717Z,1.51
2019-01-21T21:00:22.740Z,1.53
2019-01-21T21:02:51.675Z,1.55
2019-01-21T21:05:20.462Z,1.57
2019-01-21T21:07:48.922Z,1.55
2019-01-21T21:10:17.729Z,1.60
2019-01-21T21:12:46.301Z,1.61
2019-01-21T21:15:20.212Z,1.62
2019-01-21T21:17:48.659Z,1.64
2019-01-21T21:20:17.244Z,1.64
2019-01-21T21:22:45.711Z,1.59
2019-01-21T21:25:17.195Z,1.58
2019-01-21T21:27:45.664Z,1.56
2019-01-21T21:30:17.239Z,1.54
2019-01-21T21:32:45.762Z,1.45
2019-01-21T21:35:14.250Z,1.36
2019-01-21T21:37:42.808Z,1.40
2019-01-21T21:40:16.341Z,1.43
2019-01-21T21:42:45.110Z,1.43
2019-01-21T21:45:15.672Z,1.38
2019-01-21T21:47:44.332Z,1.42
2019-01-21T21:50:18.060Z,1.43
2019-01-21T21:52:46.622Z,1.44
2019-01-21T21:55:15.204Z,1.48
2019-01-21T21:57:43.936Z,1.50
2019-01-21T22:00:21.359Z,1.56
2019-01-21T22:02:49.913Z,1.62
2019-01-21T22:05:18.998Z,1.66
2019-01-21T22:07:47.472Z,1.62
2019-01-21T22:10:20.301Z,1.59
2019-01-21T22:12:48.881Z,1.52
2019-01-21T22:15:19.689Z,1.45
2019-01-21T22:17:48.153Z,1.44
2019-01-21T22:20:18.524Z,1.51
2019-01-21T22:22:47.334Z,1.57
2019-01-21T22:25:16.176Z,1.60
2019-01-21T22:27:44.739Z,1.65
2019-01-21T22:30:21.755Z,1.65
2019-01-21T22:32:50.301Z,1.67
2019-01-21T22:35:18.813Z,1.72
2019-01-21T22:37:47.693Z,1.69
2019-01-21T22:40:21.011Z,1.67
2019-01-21T22:42:49.527Z,1.70
2019-01-21T22:45:19.305Z,1.67
2019-01-21T22:47:47.763Z,1.68
2019-01-21T22:50:18.275Z,1.66
2019-01-21T22:52:46.717Z,1.65
2019-01-21T22:55:16.204Z,1.66
2019-01-21T22:57:44.653Z,1.67
2019-01-21T23:00:19.228Z,1.68
2019-01-21T23:02:47.660Z,1.68
2019-01-21T23:05:16.345Z,1.67
2019-01-21T23:07:44.784Z,1.69
2019-01-21T23:10:13.291Z,1.69
2019-01-21T23:12:41.736Z,1.67
2019-01-21T23:15:10.995Z,1.66
2019-01-21T23:17:39.445Z,1.65
2019-01-21T23:20:10.429Z,1.63
2019-01-21T23:22:38.889Z,1.66
2019-01-21T23:25:08.221Z,1.64
2019-01-21T23:27:36.941Z,1.65
2019-01-21T23:30:14.687Z,1.65
2019-01-21T23:32:43.173Z,1.63
2019-01-21T23:35:11.891Z,1.61
2019-01-21T23:37:40.340Z,1.63
2019-01-21T23:40:11.106Z,1.62
2019-01-21T23:42:39.560Z,1.63
2019-01-21T23:45:09.753Z,1.63
2019-01-21T23:47:38.201Z,1.63
2019-01-21T23:50:09.711Z,1.64
2019-01-21T23:52:38.525Z,1.64
2019-01-21T23:55:09.546Z,1.65
2019-01-21T23:57:37.997Z,1.68
